sensor_id;sensor_type;location;lat;lon;timestamp;pressure;altitude;pressure_sealevel;temperature;humidity
51227;BME280;42714;48.260;10.980;2023-05-11T00:02:29;968.9;;;10.1;100.0
51227;BME280;42714;48.260;10.980;2023-05-11T00:07:30;968.8;;;9.9;100.0
51227;BME280;42714;48.260;10.980;2023-05-11T00:12:31;968.8;;;9.8;100.0
51227;BME280;42714;48.260;10.980;2023-05-11T00:17:32;968.8;;;9.7;100.0
51227;BME280;42714;48.260;10.980;2023-05-11T00:22:33;968.7;;;9.6;100.0
51227;BME280;42714;48.260;10.980;2023-05-11T00:27:34;968.7;;;9.7;100.0
51227;BME280;42714;48.260;10.980;2023-05-11T00:32:35;968.7;;;9.6;100.0
51227;BME280;42714;48.260;10.980;2023-05-11T00:37:39;968.7;;;9.6;100.0
51227;BME280;42714;48.260;10.980;2023-05-11T00:42:37;968.6;;;9.6;100.0
51227;BME280;42714;48.260;10.980;2023-05-11T00:47:38;968.6;;;9.7;100.0
51227;BME280;42714;48.260;10.980;2023-05-11T00:52:40;968.6;;;9.5;100.0
51227;BME280;42714;48.260;10.980;2023-05-11T00:57:40;968.6;;;9.4;100.0
51227;BME280;42714;48.260;10.980;2023-05-11T01:02:40;968.6;;;9.4;100.0
51227;BME280;42714;48.260;10.980;2023-05-11T01:07:44;968.6;;;9.4;100.0
51227;BME280;42714;48.260;10.980;2023-05-11T01:17:48;968.6;;;9.4;100.0
51227;BME280;42714;48.260;10.980;2023-05-11T01:32:46;968.5;;;9.5;100.0
51227;BME280;42714;48.260;10.980;2023-05-11T01:37:48;968.6;;;9.5;100.0
51227;BME280;42714;48.260;10.980;2023-05-11T01:42:49;968.7;;;9.6;100.0
51227;BME280;42714;48.260;10.980;2023-05-11T01:47:49;968.7;;;9.7;100.0
51227;BME280;42714;48.260;10.980;2023-05-11T01:52:50;968.6;;;9.8;100.0
51227;BME280;42714;48.260;10.980;2023-05-11T01:57:52;968.6;;;9.7;100.0
51227;BME280;42714;48.260;10.980;2023-05-11T02:02:52;968.5;;;9.6;100.0
51227;BME280;42714;48.260;10.980;2023-05-11T02:07:53;968.6;;;9.5;100.0
51227;BME280;42714;48.260;10.980;2023-05-11T02:12:54;968.6;;;9.6;100.0
51227;BME280;42714;48.260;10.980;2023-05-11T02:17:55;968.6;;;9.5;100.0
51227;BME280;42714;48.260;10.980;2023-05-11T02:22:56;968.6;;;9.3;100.0
51227;BME280;42714;48.260;10.980;2023-05-11T02:27:57;968.6;;;9.3;100.0
51227;BME280;42714;48.260;10.980;2023-05-11T02:32:59;968.5;;;9.3;100.0
51227;BME280;42714;48.260;10.980;2023-05-11T02:38:00;968.5;;;9.4;100.0
51227;BME280;42714;48.260;10.980;2023-05-11T02:43:05;968.5;;;9.4;100.0
51227;BME280;42714;48.260;10.980;2023-05-11T02:48:04;968.5;;;9.3;100.0
51227;BME280;42714;48.260;10.980;2023-05-11T02:53:04;968.4;;;9.3;100.0
51227;BME280;42714;48.260;10.980;2023-05-11T02:58:03;968.4;;;9.2;100.0
51227;BME280;42714;48.260;10.980;2023-05-11T03:03:04;968.4;;;9.2;100.0
51227;BME280;42714;48.260;10.980;2023-05-11T03:08:05;968.4;;;9.1;100.0
51227;BME280;42714;48.260;10.980;2023-05-11T03:13:06;968.4;;;9.1;100.0
51227;BME280;42714;48.260;10.980;2023-05-11T03:18:07;968.4;;;9.1;100.0
51227;BME280;42714;48.260;10.980;2023-05-11T03:23:08;968.4;;;9.2;100.0
51227;BME280;42714;48.260;10.980;2023-05-11T03:28:10;968.4;;;9.3;100.0
51227;BME280;42714;48.260;10.980;2023-05-11T03:33:10;968.4;;;9.2;100.0
51227;BME280;42714;48.260;10.980;2023-05-11T03:38:11;968.3;;;9.3;100.0
51227;BME280;42714;48.260;10.980;2023-05-11T03:43:13;968.3;;;9.1;100.0
51227;BME280;42714;48.260;10.980;2023-05-11T03:48:13;968.3;;;9.1;100.0
51227;BME280;42714;48.260;10.980;2023-05-11T03:53:15;968.2;;;9.3;100.0
51227;BME280;42714;48.260;10.980;2023-05-11T03:58:15;968.2;;;9.1;100.0
51227;BME280;42714;48.260;10.980;2023-05-11T04:03:16;968.2;;;9.2;100.0
51227;BME280;42714;48.260;10.980;2023-05-11T04:08:17;968.2;;;9.1;100.0
51227;BME280;42714;48.260;10.980;2023-05-11T04:13:18;968.1;;;9.1;100.0
51227;BME280;42714;48.260;10.980;2023-05-11T04:18:19;968.1;;;9.2;100.0
51227;BME280;42714;48.260;10.980;2023-05-11T04:23:20;968.2;;;9.3;100.0
51227;BME280;42714;48.260;10.980;2023-05-11T04:28:22;968.2;;;9.2;100.0
51227;BME280;42714;48.260;10.980;2023-05-11T04:33:23;968.2;;;9.3;100.0
51227;BME280;42714;48.260;10.980;2023-05-11T04:38:23;968.2;;;9.4;100.0
51227;BME280;42714;48.260;10.980;2023-05-11T04:43:24;968.2;;;9.3;100.0
51227;BME280;42714;48.260;10.980;2023-05-11T04:48:26;968.2;;;9.3;100.0
51227;BME280;42714;48.260;10.980;2023-05-11T04:53:26;968.2;;;9.3;100.0
51227;BME280;42714;48.260;10.980;2023-05-11T04:58:27;968.2;;;9.4;100.0
51227;BME280;42714;48.260;10.980;2023-05-11T05:03:28;968.2;;;9.3;100.0
51227;BME280;42714;48.260;10.980;2023-05-11T05:08:29;968.2;;;9.3;100.0
51227;BME280;42714;48.260;10.980;2023-05-11T05:13:30;968.2;;;9.4;100.0
51227;BME280;42714;48.260;10.980;2023-05-11T05:18:31;968.2;;;9.4;100.0
51227;BME280;42714;48.260;10.980;2023-05-11T05:23:32;968.2;;;9.4;100.0
51227;BME280;42714;48.260;10.980;2023-05-11T05:28:33;968.2;;;9.4;100.0
51227;BME280;42714;48.260;10.980;2023-05-11T05:33:34;968.3;;;9.5;100.0
51227;BME280;42714;48.260;10.980;2023-05-11T05:38:36;968.3;;;9.4;100.0
51227;BME280;42714;48.260;10.980;2023-05-11T05:43:36;968.3;;;9.4;100.0
51227;BME280;42714;48.260;10.980;2023-05-11T05:48:37;968.3;;;9.4;100.0
51227;BME280;42714;48.260;10.980;2023-05-11T05:53:39;968.4;;;9.4;100.0
51227;BME280;42714;48.260;10.980;2023-05-11T05:58:40;968.3;;;9.3;100.0
51227;BME280;42714;48.260;10.980;2023-05-11T06:03:41;968.3;;;9.4;100.0
51227;BME280;42714;48.260;10.980;2023-05-11T06:08:42;968.3;;;9.6;100.0
51227;BME280;42714;48.260;10.980;2023-05-11T06:13:43;968.4;;;9.9;100.0
51227;BME280;42714;48.260;10.980;2023-05-11T06:18:45;968.4;;;10.0;100.0
51227;BME280;42714;48.260;10.980;2023-05-11T06:23:45;968.4;;;10.2;100.0
51227;BME280;42714;48.260;10.980;2023-05-11T06:28:46;968.3;;;10.2;100.0
51227;BME280;42714;48.260;10.980;2023-05-11T06:33:47;968.3;;;10.2;100.0
51227;BME280;42714;48.260;10.980;2023-05-11T06:38:48;968.3;;;9.9;100.0
51227;BME280;42714;48.260;10.980;2023-05-11T06:43:49;968.3;;;9.8;100.0
51227;BME280;42714;48.260;10.980;2023-05-11T06:48:50;968.3;;;9.7;100.0
51227;BME280;42714;48.260;10.980;2023-05-11T06:53:51;968.3;;;9.8;100.0
51227;BME280;42714;48.260;10.980;2023-05-11T06:58:52;968.3;;;9.8;100.0
51227;BME280;42714;48.260;10.980;2023-05-11T07:03:53;968.3;;;9.8;100.0
51227;BME280;42714;48.260;10.980;2023-05-11T07:08:54;968.2;;;9.9;100.0
51227;BME280;42714;48.260;10.980;2023-05-11T07:13:55;968.3;;;10.1;100.0
51227;BME280;42714;48.260;10.980;2023-05-11T07:18:56;968.2;;;10.1;100.0
51227;BME280;42714;48.260;10.980;2023-05-11T07:23:57;968.3;;;10.1;100.0
51227;BME280;42714;48.260;10.980;2023-05-11T07:28:58;968.3;;;10.2;100.0
51227;BME280;42714;48.260;10.980;2023-05-11T07:33:59;968.3;;;10.6;100.0
51227;BME280;42714;48.260;10.980;2023-05-11T07:39:00;968.3;;;10.5;100.0
51227;BME280;42714;48.260;10.980;2023-05-11T07:44:01;968.2;;;10.4;100.0
51227;BME280;42714;48.260;10.980;2023-05-11T07:49:02;968.2;;;10.4;100.0
51227;BME280;42714;48.260;10.980;2023-05-11T07:54:03;968.2;;;10.3;100.0
51227;BME280;42714;48.260;10.980;2023-05-11T07:59:04;968.3;;;10.1;100.0
51227;BME280;42714;48.260;10.980;2023-05-11T08:04:05;968.2;;;10.1;100.0
51227;BME280;42714;48.260;10.980;2023-05-11T08:09:06;968.3;;;10.1;100.0
51227;BME280;42714;48.260;10.980;2023-05-11T08:14:07;968.2;;;10.1;100.0
51227;BME280;42714;48.260;10.980;2023-05-11T08:19:08;968.2;;;10.1;100.0
51227;BME280;42714;48.260;10.980;2023-05-11T08:24:09;968.3;;;10.2;100.0
51227;BME280;42714;48.260;10.980;2023-05-11T08:29:10;968.2;;;10.2;100.0
51227;BME280;42714;48.260;10.980;2023-05-11T08:34:11;968.2;;;10.4;100.0
51227;BME280;42714;48.260;10.980;2023-05-11T08:39:12;968.2;;;10.4;100.0
51227;BME280;42714;48.260;10.980;2023-05-11T08:44:13;968.2;;;10.3;100.0
51227;BME280;42714;48.260;10.980;2023-05-11T08:49:14;968.1;;;10.5;100.0
51227;BME280;42714;48.260;10.980;2023-05-11T08:54:15;968.2;;;10.5;100.0
51227;BME280;42714;48.260;10.980;2023-05-11T08:59:16;968.2;;;10.8;100.0
51227;BME280;42714;48.260;10.980;2023-05-11T09:04:17;968.1;;;10.7;100.0
51227;BME280;42714;48.260;10.980;2023-05-11T09:09:18;968.1;;;10.7;100.0
51227;BME280;42714;48.260;10.980;2023-05-11T09:14:19;968.1;;;10.9;100.0
51227;BME280;42714;48.260;10.980;2023-05-11T09:19:20;968.1;;;10.9;100.0
51227;BME280;42714;48.260;10.980;2023-05-11T09:24:21;968.1;;;11.1;100.0
51227;BME280;42714;48.260;10.980;2023-05-11T09:29:22;968.1;;;11.5;100.0
51227;BME280;42714;48.260;10.980;2023-05-11T09:34:23;968.1;;;11.6;100.0
51227;BME280;42714;48.260;10.980;2023-05-11T09:44:25;968.0;;;11.6;100.0
51227;BME280;42714;48.260;10.980;2023-05-11T09:49:27;968.0;;;11.7;100.0
51227;BME280;42714;48.260;10.980;2023-05-11T09:54:27;967.9;;;11.6;100.0
51227;BME280;42714;48.260;10.980;2023-05-11T09:59:35;967.9;;;11.4;100.0
51227;BME280;42714;48.260;10.980;2023-05-11T10:04:29;967.9;;;11.1;100.0
51227;BME280;42714;48.260;10.980;2023-05-11T10:09:30;967.9;;;11.1;100.0
51227;BME280;42714;48.260;10.980;2023-05-11T10:14:31;967.9;;;11.1;100.0
51227;BME280;42714;48.260;10.980;2023-05-11T10:19:32;967.9;;;11.3;100.0
51227;BME280;42714;48.260;10.980;2023-05-11T10:24:33;967.9;;;11.2;100.0
51227;BME280;42714;48.260;10.980;2023-05-11T10:29:34;967.9;;;11.0;100.0
51227;BME280;42714;48.260;10.980;2023-05-11T10:34:35;967.9;;;10.8;100.0
51227;BME280;42714;48.260;10.980;2023-05-11T10:39:36;967.9;;;10.8;100.0
51227;BME280;42714;48.260;10.980;2023-05-11T10:44:40;967.9;;;10.7;100.0
51227;BME280;42714;48.260;10.980;2023-05-11T10:49:42;967.9;;;10.8;100.0
51227;BME280;42714;48.260;10.980;2023-05-11T10:54:41;967.9;;;10.8;100.0
51227;BME280;42714;48.260;10.980;2023-05-11T10:59:44;967.9;;;11.0;100.0
51227;BME280;42714;48.260;10.980;2023-05-11T11:04:42;967.9;;;10.9;100.0
51227;BME280;42714;48.260;10.980;2023-05-11T11:19:44;967.9;;;11.2;100.0
51227;BME280;42714;48.260;10.980;2023-05-11T11:24:45;967.9;;;11.6;100.0
51227;BME280;42714;48.260;10.980;2023-05-11T11:30:14;967.8;;;11.7;100.0
51227;BME280;42714;48.260;10.980;2023-05-11T11:34:47;967.8;;;12.1;100.0
51227;BME280;42714;48.260;10.980;2023-05-11T11:39:49;967.8;;;12.4;100.0
51227;BME280;42714;48.260;10.980;2023-05-11T11:44:49;967.8;;;12.6;100.0
51227;BME280;42714;48.260;10.980;2023-05-11T11:49:51;967.8;;;12.6;100.0
51227;BME280;42714;48.260;10.980;2023-05-11T11:54:51;967.8;;;12.6;100.0
51227;BME280;42714;48.260;10.980;2023-05-11T11:59:52;967.9;;;12.5;100.0
51227;BME280;42714;48.260;10.980;2023-05-11T12:04:55;967.8;;;12.3;100.0
51227;BME280;42714;48.260;10.980;2023-05-11T12:09:54;967.9;;;12.0;100.0
51227;BME280;42714;48.260;10.980;2023-05-11T12:14:55;967.9;;;11.9;100.0
51227;BME280;42714;48.260;10.980;2023-05-11T12:20:09;967.8;;;12.0;100.0
51227;BME280;42714;48.260;10.980;2023-05-11T12:24:57;967.8;;;12.1;100.0
51227;BME280;42714;48.260;10.980;2023-05-11T12:29:58;967.8;;;12.1;100.0
51227;BME280;42714;48.260;10.980;2023-05-11T12:34:59;967.8;;;12.1;100.0
51227;BME280;42714;48.260;10.980;2023-05-11T12:40:00;967.8;;;12.2;100.0
51227;BME280;42714;48.260;10.980;2023-05-11T12:45:01;967.8;;;12.3;100.0
51227;BME280;42714;48.260;10.980;2023-05-11T12:50:02;967.7;;;12.2;100.0
51227;BME280;42714;48.260;10.980;2023-05-11T13:00:05;967.6;;;12.3;100.0
51227;BME280;42714;48.260;10.980;2023-05-11T13:10:07;967.6;;;12.3;100.0
51227;BME280;42714;48.260;10.980;2023-05-11T13:15:09;967.6;;;12.4;100.0
51227;BME280;42714;48.260;10.980;2023-05-11T13:25:09;967.4;;;12.5;100.0
51227;BME280;42714;48.260;10.980;2023-05-11T13:30:10;967.4;;;12.8;100.0
51227;BME280;42714;48.260;10.980;2023-05-11T13:35:11;967.4;;;12.9;100.0
51227;BME280;42714;48.260;10.980;2023-05-11T13:40:12;967.3;;;12.7;100.0
51227;BME280;42714;48.260;10.980;2023-05-11T13:45:13;967.3;;;12.7;100.0
51227;BME280;42714;48.260;10.980;2023-05-11T13:50:14;967.3;;;12.8;100.0
51227;BME280;42714;48.260;10.980;2023-05-11T13:55:15;967.3;;;12.7;100.0
51227;BME280;42714;48.260;10.980;2023-05-11T14:00:16;967.2;;;12.6;100.0
51227;BME280;42714;48.260;10.980;2023-05-11T14:05:17;967.2;;;12.7;100.0
51227;BME280;42714;48.260;10.980;2023-05-11T14:10:18;967.2;;;12.9;100.0
51227;BME280;42714;48.260;10.980;2023-05-11T14:15:19;967.2;;;13.1;100.0
51227;BME280;42714;48.260;10.980;2023-05-11T14:20:20;967.1;;;13.0;100.0
51227;BME280;42714;48.260;10.980;2023-05-11T14:25:21;967.1;;;13.0;100.0
51227;BME280;42714;48.260;10.980;2023-05-11T14:30:22;967.1;;;12.8;100.0
51227;BME280;42714;48.260;10.980;2023-05-11T14:35:23;967.1;;;12.6;100.0
51227;BME280;42714;48.260;10.980;2023-05-11T14:40:24;967.1;;;12.4;100.0
51227;BME280;42714;48.260;10.980;2023-05-11T14:45:25;967.2;;;12.3;100.0
51227;BME280;42714;48.260;10.980;2023-05-11T14:50:26;967.2;;;12.3;100.0
51227;BME280;42714;48.260;10.980;2023-05-11T14:55:27;967.2;;;12.2;100.0
51227;BME280;42714;48.260;10.980;2023-05-11T15:00:29;967.2;;;12.1;100.0
51227;BME280;42714;48.260;10.980;2023-05-11T15:05:29;967.2;;;12.2;100.0
51227;BME280;42714;48.260;10.980;2023-05-11T15:10:30;967.1;;;12.2;100.0
51227;BME280;42714;48.260;10.980;2023-05-11T15:15:31;967.2;;;12.3;100.0
51227;BME280;42714;48.260;10.980;2023-05-11T15:20:32;967.2;;;12.4;100.0
51227;BME280;42714;48.260;10.980;2023-05-11T15:25:34;967.2;;;12.4;100.0
51227;BME280;42714;48.260;10.980;2023-05-11T15:30:34;967.3;;;12.3;100.0
51227;BME280;42714;48.260;10.980;2023-05-11T15:35:35;967.4;;;12.4;100.0
51227;BME280;42714;48.260;10.980;2023-05-11T15:40:36;967.4;;;12.2;100.0
51227;BME280;42714;48.260;10.980;2023-05-11T15:45:37;967.4;;;12.1;100.0
51227;BME280;42714;48.260;10.980;2023-05-11T15:50:38;967.4;;;12.0;100.0
51227;BME280;42714;48.260;10.980;2023-05-11T15:55:39;967.4;;;11.8;100.0
51227;BME280;42714;48.260;10.980;2023-05-11T16:00:40;967.4;;;11.7;100.0
51227;BME280;42714;48.260;10.980;2023-05-11T16:05:41;967.4;;;11.6;100.0
51227;BME280;42714;48.260;10.980;2023-05-11T16:10:42;967.4;;;11.5;100.0
51227;BME280;42714;48.260;10.980;2023-05-11T16:15:43;967.4;;;11.4;100.0
51227;BME280;42714;48.260;10.980;2023-05-11T16:20:44;967.4;;;11.4;100.0
51227;BME280;42714;48.260;10.980;2023-05-11T16:25:45;967.4;;;11.3;100.0
51227;BME280;42714;48.260;10.980;2023-05-11T16:30:46;967.4;;;11.3;100.0
51227;BME280;42714;48.260;10.980;2023-05-11T16:35:47;967.4;;;11.2;100.0
51227;BME280;42714;48.260;10.980;2023-05-11T16:40:48;967.4;;;11.3;100.0
51227;BME280;42714;48.260;10.980;2023-05-11T16:45:49;967.4;;;11.2;100.0
51227;BME280;42714;48.260;10.980;2023-05-11T16:50:50;967.4;;;11.0;100.0
51227;BME280;42714;48.260;10.980;2023-05-11T16:55:52;967.4;;;11.0;100.0
51227;BME280;42714;48.260;10.980;2023-05-11T17:00:52;967.3;;;11.1;100.0
51227;BME280;42714;48.260;10.980;2023-05-11T17:05:53;967.3;;;11.1;100.0
51227;BME280;42714;48.260;10.980;2023-05-11T17:10:54;967.3;;;11.2;100.0
51227;BME280;42714;48.260;10.980;2023-05-11T17:15:55;967.3;;;11.2;100.0
51227;BME280;42714;48.260;10.980;2023-05-11T17:20:56;967.3;;;11.3;100.0
51227;BME280;42714;48.260;10.980;2023-05-11T17:25:57;967.3;;;11.4;100.0
51227;BME280;42714;48.260;10.980;2023-05-11T17:31:05;967.3;;;11.2;100.0
51227;BME280;42714;48.260;10.980;2023-05-11T17:35:59;967.3;;;11.1;100.0
51227;BME280;42714;48.260;10.980;2023-05-11T17:41:01;967.4;;;11.1;100.0
51227;BME280;42714;48.260;10.980;2023-05-11T17:46:01;967.4;;;11.1;100.0
51227;BME280;42714;48.260;10.980;2023-05-11T17:51:02;967.4;;;11.1;100.0
51227;BME280;42714;48.260;10.980;2023-05-11T17:56:03;967.4;;;11.0;100.0
51227;BME280;42714;48.260;10.980;2023-05-11T18:01:05;967.4;;;11.0;100.0
51227;BME280;42714;48.260;10.980;2023-05-11T18:06:05;967.4;;;11.0;100.0
51227;BME280;42714;48.260;10.980;2023-05-11T18:11:06;967.5;;;11.0;100.0
51227;BME280;42714;48.260;10.980;2023-05-11T18:16:07;967.5;;;11.0;100.0
51227;BME280;42714;48.260;10.980;2023-05-11T18:21:08;967.5;;;11.1;100.0
51227;BME280;42714;48.260;10.980;2023-05-11T18:26:09;967.5;;;10.9;100.0
51227;BME280;42714;48.260;10.980;2023-05-11T18:31:10;967.5;;;10.9;100.0
51227;BME280;42714;48.260;10.980;2023-05-11T18:36:11;967.5;;;10.9;100.0
51227;BME280;42714;48.260;10.980;2023-05-11T18:41:12;967.5;;;10.8;100.0
51227;BME280;42714;48.260;10.980;2023-05-11T18:46:13;967.5;;;10.8;100.0
51227;BME280;42714;48.260;10.980;2023-05-11T18:51:14;967.5;;;10.8;100.0
51227;BME280;42714;48.260;10.980;2023-05-11T18:56:15;967.5;;;10.8;100.0
51227;BME280;42714;48.260;10.980;2023-05-11T19:01:16;967.6;;;10.9;100.0
51227;BME280;42714;48.260;10.980;2023-05-11T19:06:17;967.6;;;10.7;100.0
51227;BME280;42714;48.260;10.980;2023-05-11T19:11:18;967.5;;;10.6;100.0
51227;BME280;42714;48.260;10.980;2023-05-11T19:16:19;967.6;;;10.6;100.0
51227;BME280;42714;48.260;10.980;2023-05-11T19:21:20;967.6;;;10.6;100.0
51227;BME280;42714;48.260;10.980;2023-05-11T19:26:21;967.6;;;10.6;100.0
51227;BME280;42714;48.260;10.980;2023-05-11T19:31:22;967.6;;;10.6;100.0
51227;BME280;42714;48.260;10.980;2023-05-11T19:36:23;967.7;;;10.7;100.0
51227;BME280;42714;48.260;10.980;2023-05-11T19:41:24;967.6;;;10.8;100.0
51227;BME280;42714;48.260;10.980;2023-05-11T19:46:25;967.6;;;10.9;100.0
51227;BME280;42714;48.260;10.980;2023-05-11T19:51:26;967.7;;;10.9;100.0
51227;BME280;42714;48.260;10.980;2023-05-11T19:56:27;967.7;;;10.8;100.0
51227;BME280;42714;48.260;10.980;2023-05-11T20:01:28;967.7;;;10.7;100.0
51227;BME280;42714;48.260;10.980;2023-05-11T20:06:29;967.7;;;10.6;100.0
51227;BME280;42714;48.260;10.980;2023-05-11T20:11:30;967.7;;;10.8;100.0
51227;BME280;42714;48.260;10.980;2023-05-11T20:16:31;967.7;;;10.8;100.0
51227;BME280;42714;48.260;10.980;2023-05-11T20:21:32;967.7;;;10.9;100.0
51227;BME280;42714;48.260;10.980;2023-05-11T20:26:33;967.7;;;10.8;100.0
51227;BME280;42714;48.260;10.980;2023-05-11T20:31:34;967.7;;;10.9;100.0
51227;BME280;42714;48.260;10.980;2023-05-11T20:36:35;967.7;;;10.9;100.0
51227;BME280;42714;48.260;10.980;2023-05-11T20:41:36;967.6;;;10.9;100.0
51227;BME280;42714;48.260;10.980;2023-05-11T20:46:38;967.6;;;10.9;100.0
51227;BME280;42714;48.260;10.980;2023-05-11T20:51:38;967.6;;;10.9;100.0
51227;BME280;42714;48.260;10.980;2023-05-11T20:56:39;967.5;;;10.9;100.0
51227;BME280;42714;48.260;10.980;2023-05-11T21:01:41;967.6;;;10.9;100.0
51227;BME280;42714;48.260;10.980;2023-05-11T21:06:41;967.6;;;10.8;100.0
51227;BME280;42714;48.260;10.980;2023-05-11T21:11:42;967.6;;;10.8;100.0
51227;BME280;42714;48.260;10.980;2023-05-11T21:16:43;967.6;;;10.7;100.0
51227;BME280;42714;48.260;10.980;2023-05-11T21:21:44;967.5;;;10.6;100.0
51227;BME280;42714;48.260;10.980;2023-05-11T21:26:45;967.5;;;10.6;100.0
51227;BME280;42714;48.260;10.980;2023-05-11T21:31:46;967.5;;;10.6;100.0
51227;BME280;42714;48.260;10.980;2023-05-11T21:36:47;967.6;;;10.7;100.0
51227;BME280;42714;48.260;10.980;2023-05-11T21:41:48;967.6;;;10.7;100.0
51227;BME280;42714;48.260;10.980;2023-05-11T21:46:49;967.6;;;10.7;100.0
51227;BME280;42714;48.260;10.980;2023-05-11T21:51:50;967.6;;;10.8;100.0
51227;BME280;42714;48.260;10.980;2023-05-11T21:56:51;967.6;;;10.7;100.0
51227;BME280;42714;48.260;10.980;2023-05-11T22:01:53;967.6;;;10.7;100.0
51227;BME280;42714;48.260;10.980;2023-05-11T22:06:55;967.6;;;10.7;100.0
51227;BME280;42714;48.260;10.980;2023-05-11T22:11:54;967.6;;;10.7;100.0
51227;BME280;42714;48.260;10.980;2023-05-11T22:16:55;967.6;;;10.6;100.0
51227;BME280;42714;48.260;10.980;2023-05-11T22:21:56;967.6;;;10.6;100.0
51227;BME280;42714;48.260;10.980;2023-05-11T22:26:57;967.7;;;10.6;100.0
51227;BME280;42714;48.260;10.980;2023-05-11T22:31:58;967.7;;;10.6;100.0
51227;BME280;42714;48.260;10.980;2023-05-11T22:37:00;967.7;;;10.6;100.0
51227;BME280;42714;48.260;10.980;2023-05-11T22:42:00;967.7;;;10.7;100.0
51227;BME280;42714;48.260;10.980;2023-05-11T22:47:02;967.7;;;10.7;100.0
51227;BME280;42714;48.260;10.980;2023-05-11T22:52:03;967.8;;;10.7;100.0
51227;BME280;42714;48.260;10.980;2023-05-11T22:57:04;967.7;;;10.7;100.0
51227;BME280;42714;48.260;10.980;2023-05-11T23:02:05;967.7;;;10.8;100.0
51227;BME280;42714;48.260;10.980;2023-05-11T23:07:05;967.7;;;10.8;100.0
51227;BME280;42714;48.260;10.980;2023-05-11T23:12:07;967.7;;;10.8;100.0
51227;BME280;42714;48.260;10.980;2023-05-11T23:17:08;967.7;;;10.8;100.0
51227;BME280;42714;48.260;10.980;2023-05-11T23:22:09;967.6;;;10.8;100.0
51227;BME280;42714;48.260;10.980;2023-05-11T23:27:10;967.6;;;10.8;100.0
51227;BME280;42714;48.260;10.980;2023-05-11T23:32:11;967.6;;;10.7;100.0
51227;BME280;42714;48.260;10.980;2023-05-11T23:37:12;967.6;;;10.7;100.0
51227;BME280;42714;48.260;10.980;2023-05-11T23:42:13;967.5;;;10.7;100.0
51227;BME280;42714;48.260;10.980;2023-05-11T23:47:14;967.6;;;10.7;100.0
51227;BME280;42714;48.260;10.980;2023-05-11T23:52:15;967.5;;;10.6;100.0
51227;BME280;42714;48.260;10.980;2023-05-11T23:57:16;967.5;;;10.5;100.0
